Aérodrome :
LOGIN :

S'inscrire | Disclaimer

   EN    FR    IT 

 










Légende :    VFR   VFR Marginal   IFR   IFR Intensif   IFR Très Intensif
Visi : 
Plafond : 
>= 8 km
>= 3000ft
5 à 8 km
1000 à 3000 ft
1500m à 5 km
500 à 1000 ft
800 à 1500m
200 à 500 ft
< 800m
< 200 ft
Symboles :   Orages  Brouillard  Fortes neiges  Fortes précipitations  Vent > 20 kt
SIGMETs :   Divers  Orages  Givrage  Turbulence  Onde Orograph.  Cendres Volcan.






- Altitude de l'aérodrome : 495 ft
- Code IATA : BUD


LHBP - Budapest Ferihegy

DERNIER METAR :
  • 121330Z 07006KT 040V100 3400 -RA BR BKN004 OVC015 03/02 Q1007 NOSIG

METARs EXPIRÉS :
  • 121300Z 08007KT 2300 -DZRA BR BKN004 OVC011 03/02 Q1007 TEMPO 3000 SCT005 BKN012
  • 121230Z 10006KT 070V150 2300 -DZ BR BKN004 OVC012 03/02 Q1007 TEMPO 3000 SCT005 BKN012
  • 121200Z 09006KT 2500 -DZRA BR BKN005 OVC012 02/02 Q1007 TEMPO 3000 SCT005 BKN012
  • 121130Z 10007KT 060V120 2300 -DZRA BR BKN004 OVC015 02/02 Q1008 TEMPO 3000 BKN005
  • 121100Z 08005KT 050V120 2500 -DZRA BR BKN004 OVC017 02/01 Q1008 TEMPO 3000 BKN005

TAF TAF LHBP
Valide du 12 à 12h jusqu'au 13 à 12h UTC


121115Z 1212/1312 07005KT 5000 -RA BR SCT008 OVC015
TEMPO 1212/1306 VRB03KT 2500 RA DZRA BR BKN004 OVC010
BECMG 1306/1309 17008KT 8000 NSW BKN014 BKN030



MET'MAP, la Météo Aéronautique d'un coup d'oeil ! - Copyright ORBIFLY Décembre 2007 - Disclaimer

ORBIFLY MET'MAP TEAM :

Programmation & Développement : Alexandra Zaïnal
Sur une idée originale de : Baudouin d'Aumeries
Assistance à la programmation : Marc-Olivier Méhu
Soutien technique & logistique : Manuel Goepfert

Contact : metmap@orbifly.com




SOURCES & CREDITS :

   NOAA